createdAt,value
2022-12-05T00:01:37.251Z,91.92
2022-12-05T00:06:40.481Z,92.17
2022-12-05T00:11:44.686Z,91.66
2022-12-05T00:16:46.112Z,91.81
2022-12-05T00:21:47.530Z,92.04
2022-12-05T00:26:49.084Z,91.95
2022-12-05T00:31:50.613Z,91.38
2022-12-05T00:36:52.090Z,91.88
2022-12-05T00:41:53.505Z,91.66
2022-12-05T00:46:54.878Z,92.11
2022-12-05T00:51:56.412Z,91.40
2022-12-05T00:56:57.851Z,92.47
2022-12-05T01:01:59.278Z,91.75
2022-12-05T01:07:00.642Z,91.84
2022-12-05T01:12:02.057Z,91.53
2022-12-05T01:17:03.818Z,91.88
2022-12-05T01:22:05.267Z,92.10
2022-12-05T01:27:06.692Z,92.26
2022-12-05T01:32:08.190Z,91.93
2022-12-05T01:37:09.658Z,92.24
2022-12-05T01:42:12.179Z,92.20
2022-12-05T01:47:17.484Z,92.11
2022-12-05T01:52:23.327Z,91.68
2022-12-05T01:57:25.394Z,91.59
2022-12-05T02:02:29.673Z,91.58
2022-12-05T02:07:32.183Z,91.94
2022-12-05T02:12:34.620Z,91.85
2022-12-05T02:17:54.097Z,91.32
2022-12-05T02:23:13.851Z,91.88
2022-12-05T02:28:33.915Z,91.58
2022-12-05T02:33:40.822Z,91.33
2022-12-05T02:39:11.271Z,91.25
2022-12-05T02:44:20.510Z,91.22
2022-12-05T02:49:26.290Z,91.37
2022-12-05T02:54:33.760Z,91.41
2022-12-05T02:59:35.908Z,91.37
2022-12-05T03:04:37.570Z,91.25
2022-12-05T03:09:44.682Z,91.24
2022-12-05T03:14:51.476Z,91.19
2022-12-05T03:20:06.872Z,91.05
2022-12-05T03:25:09.620Z,91.31
2022-12-05T03:30:15.143Z,91.64
2022-12-05T03:35:22.685Z,91.63
2022-12-05T03:40:49.043Z,90.98
2022-12-05T03:45:59.783Z,90.97
2022-12-05T03:51:05.820Z,91.14
2022-12-05T03:56:16.480Z,91.29
2022-12-05T04:01:21.466Z,91.79
2022-12-05T04:06:23.118Z,91.07
2022-12-05T04:11:27.399Z,91.23
2022-12-05T04:16:59.251Z,91.37
2022-12-05T04:22:00.639Z,91.14
2022-12-05T04:27:26.477Z,91.22
2022-12-05T04:32:37.239Z,91.46
2022-12-05T04:37:42.479Z,91.73
2022-12-05T04:42:47.147Z,91.24
2022-12-05T04:47:55.799Z,91.29
2022-12-05T04:52:59.301Z,91.56
2022-12-05T04:58:18.910Z,90.61
2022-12-05T05:03:30.274Z,90.59
2022-12-05T05:08:31.725Z,91.07
2022-12-05T05:13:33.098Z,91.21
2022-12-05T05:18:34.543Z,91.11
2022-12-05T05:23:35.901Z,90.72
2022-12-05T05:28:37.295Z,91.14
2022-12-05T05:33:38.762Z,90.85
2022-12-05T05:38:42.872Z,90.60
2022-12-05T05:43:45.287Z,90.67
2022-12-05T05:48:47.583Z,91.01
2022-12-05T05:53:49.691Z,90.58
2022-12-05T05:59:02.744Z,90.79
2022-12-05T06:04:04.209Z,91.19
2022-12-05T06:09:07.720Z,91.39
2022-12-05T06:14:09.470Z,90.89
2022-12-05T06:19:10.892Z,91.00
2022-12-05T06:24:12.255Z,91.22
2022-12-05T06:29:13.855Z,90.84
2022-12-05T06:34:15.327Z,91.37
2022-12-05T06:39:16.772Z,90.95
2022-12-05T06:44:18.208Z,91.28
2022-12-05T06:49:19.638Z,90.56
2022-12-05T06:54:21.076Z,90.75
2022-12-05T06:59:22.524Z,90.89
2022-12-05T07:04:24.400Z,90.84
2022-12-05T07:09:44.630Z,91.06
2022-12-05T07:14:48.608Z,90.79
2022-12-05T07:19:52.534Z,91.03
2022-12-05T07:24:54.099Z,91.36
2022-12-05T07:29:56.312Z,91.35
2022-12-05T07:34:57.986Z,91.21
2022-12-05T07:39:59.509Z,91.16
2022-12-05T07:45:01.101Z,91.18
2022-12-05T07:50:02.591Z,91.58
2022-12-05T07:55:04.426Z,91.51
2022-12-05T08:00:06.767Z,91.79
2022-12-05T08:05:14.092Z,91.46
2022-12-05T08:10:15.545Z,91.42
2022-12-05T08:15:16.976Z,90.96
2022-12-05T08:20:18.503Z,90.95
2022-12-05T08:25:20.099Z,91.59
2022-12-05T08:30:21.619Z,91.49
2022-12-05T08:35:23.014Z,91.53
2022-12-05T08:40:24.469Z,92.03
2022-12-05T08:45:25.872Z,91.77
2022-12-05T08:50:27.253Z,91.83
2022-12-05T08:55:28.626Z,91.65
2022-12-05T09:00:30.032Z,92.01
2022-12-05T09:05:31.774Z,91.47
2022-12-05T09:10:33.708Z,90.98
2022-12-05T09:15:38.631Z,91.61
2022-12-05T09:20:40.095Z,91.08
2022-12-05T09:25:41.514Z,90.76
2022-12-05T09:30:43.750Z,91.09
2022-12-05T09:35:45.315Z,90.96
2022-12-05T09:40:56.399Z,90.73
2022-12-05T09:46:17.028Z,90.64
2022-12-05T09:51:18.555Z,90.29
2022-12-05T09:56:32.599Z,90.25
2022-12-05T10:01:43.958Z,90.37
2022-12-05T10:06:54.389Z,90.37
2022-12-05T10:12:13.851Z,89.87
2022-12-05T10:17:23.475Z,90.21
2022-12-05T10:22:27.631Z,90.02
2022-12-05T10:27:40.071Z,89.95
2022-12-05T10:32:53.315Z,90.13
2022-12-05T10:38:00.442Z,89.85
2022-12-05T10:43:02.047Z,90.17
2022-12-05T10:48:03.573Z,90.44
2022-12-05T10:53:06.424Z,89.84
2022-12-05T10:58:13.974Z,90.35
2022-12-05T11:03:26.449Z,89.88
2022-12-05T11:09:02.623Z,90.11
2022-12-05T11:14:23.798Z,90.00
2022-12-05T11:19:28.671Z,90.54
2022-12-05T11:24:31.360Z,89.68
2022-12-05T11:29:36.318Z,89.28
2022-12-05T11:34:42.626Z,89.45
2022-12-05T11:39:45.183Z,89.19
2022-12-05T11:44:46.514Z,89.21
2022-12-05T11:50:13.192Z,89.08
2022-12-05T11:55:20.017Z,89.10
2022-12-05T12:00:23.240Z,88.91
2022-12-05T12:05:24.526Z,89.40
2022-12-05T12:10:38.238Z,88.93
2022-12-05T12:15:53.437Z,88.59
2022-12-05T12:21:20.618Z,89.40
2022-12-05T12:26:46.587Z,89.11
2022-12-05T12:32:33.114Z,88.96
2022-12-05T12:37:48.136Z,89.70
2022-12-05T12:42:56.609Z,89.17
2022-12-05T12:48:12.851Z,88.56
2022-12-05T12:53:39.068Z,88.73
2022-12-05T12:59:23.959Z,89.20
2022-12-05T13:04:31.855Z,89.02
2022-12-05T13:09:46.119Z,89.03
2022-12-05T13:14:53.463Z,88.99
2022-12-05T13:19:56.886Z,88.58
2022-12-05T13:24:58.546Z,88.97
2022-12-05T13:30:03.576Z,88.79
2022-12-05T13:35:11.374Z,87.04
2022-12-05T13:40:44.651Z,87.72
2022-12-05T13:46:01.057Z,88.51
2022-12-05T13:51:13.367Z,87.67
2022-12-05T13:56:14.668Z,88.10
2022-12-05T14:01:25.946Z,88.04
2022-12-05T14:06:37.981Z,88.33
2022-12-05T14:11:39.559Z,88.76
2022-12-05T14:16:44.449Z,88.44
2022-12-05T14:21:49.891Z,88.05
2022-12-05T14:27:11.966Z,88.06
2022-12-05T14:32:16.523Z,88.28
2022-12-05T14:37:17.835Z,88.37
2022-12-05T14:42:27.349Z,88.19
2022-12-05T14:47:33.087Z,88.54
2022-12-05T14:52:34.705Z,88.85
2022-12-05T14:57:46.232Z,88.60
2022-12-05T15:02:51.208Z,88.96
2022-12-05T15:07:54.608Z,89.23
2022-12-05T15:13:11.478Z,88.96
2022-12-05T15:18:25.936Z,88.76
2022-12-05T15:23:42.562Z,89.44
2022-12-05T15:29:08.087Z,88.94
2022-12-05T15:34:20.572Z,88.90
2022-12-05T15:39:25.671Z,89.08
2022-12-05T15:44:34.235Z,88.88
2022-12-05T15:49:38.954Z,89.32
2022-12-05T15:54:41.380Z,88.92
2022-12-05T15:59:50.292Z,89.04
2022-12-05T16:04:58.150Z,88.85
2022-12-05T16:10:00.891Z,89.31
2022-12-05T16:15:04.980Z,89.51
2022-12-05T16:20:24.025Z,89.54
2022-12-05T16:25:28.773Z,89.49
2022-12-05T17:31:13.756Z,87.98
2022-12-05T17:50:52.298Z,87.76
2022-12-05T17:56:05.004Z,87.94
2022-12-05T18:01:25.141Z,87.62
2022-12-05T18:06:35.855Z,87.99
2022-12-05T18:12:09.367Z,88.07
2022-12-05T18:17:22.612Z,88.10
2022-12-05T18:27:47.214Z,88.99
2022-12-05T18:33:42.806Z,89.54
2022-12-05T18:38:50.259Z,90.08
2022-12-05T18:43:51.994Z,90.45
2022-12-05T18:48:55.015Z,90.49
2022-12-05T18:53:59.584Z,90.33
2022-12-05T18:59:03.864Z,90.37
2022-12-05T19:04:07.571Z,90.21
2022-12-05T19:09:13.033Z,90.41
2022-12-05T19:14:16.623Z,90.29
2022-12-05T19:20:17.927Z,90.32
2022-12-05T19:50:41.728Z,90.55
2022-12-05T19:56:13.374Z,90.55
2022-12-05T20:01:21.898Z,90.43
2022-12-05T20:06:24.819Z,90.69
2022-12-05T20:11:28.877Z,90.71
2022-12-05T20:16:30.575Z,90.65
2022-12-05T20:21:34.086Z,90.50
2022-12-05T20:26:38.918Z,90.77
2022-12-05T20:31:42.670Z,90.31
2022-12-05T20:36:44.204Z,90.26
2022-12-05T20:41:46.312Z,90.38
2022-12-05T20:46:51.542Z,89.60
2022-12-05T20:51:53.669Z,89.44
2022-12-05T20:56:55.084Z,90.06
2022-12-05T21:01:56.499Z,89.73
2022-12-05T21:06:58.119Z,90.21
2022-12-05T21:11:59.579Z,89.61
2022-12-05T21:17:01.082Z,90.36
2022-12-05T21:22:02.517Z,89.72
2022-12-05T21:27:03.990Z,89.83
2022-12-05T21:32:05.454Z,90.19
2022-12-05T21:37:06.851Z,90.62
2022-12-05T21:42:08.255Z,90.65
2022-12-05T21:47:09.655Z,89.79
2022-12-05T21:52:11.035Z,89.84
2022-12-05T21:57:12.644Z,89.82
2022-12-05T22:02:14.107Z,90.18
2022-12-05T22:07:16.265Z,90.23
2022-12-05T22:12:17.841Z,90.67
2022-12-05T22:17:19.210Z,90.66
2022-12-05T22:22:20.570Z,90.46
2022-12-05T22:27:21.971Z,90.43
2022-12-05T22:32:23.702Z,90.53
2022-12-05T22:37:25.086Z,90.26
2022-12-05T22:42:27.067Z,89.67
2022-12-05T22:47:28.450Z,89.85
2022-12-05T22:52:29.824Z,90.55
2022-12-05T22:57:31.187Z,90.35
2022-12-05T23:02:32.627Z,90.57
2022-12-05T23:07:34.199Z,90.15
2022-12-05T23:12:35.654Z,90.10
2022-12-05T23:17:37.096Z,90.38
2022-12-05T23:22:38.450Z,90.03
2022-12-05T23:27:39.858Z,89.59
2022-12-05T23:32:41.337Z,89.68
2022-12-05T23:37:42.795Z,90.00
2022-12-05T23:42:44.323Z,89.62
2022-12-05T23:47:45.698Z,90.29
2022-12-05T23:52:47.061Z,89.79
2022-12-05T23:57:48.431Z,89.76
